sensor_id;sensor_type;location;lat;lon;timestamp;P1;durP1;ratioP1;P2;durP2;ratioP2
11907;SDS011;6014;47.690;9.130;2023-08-06T00:00:59;6.03;;;2.70;;
11907;SDS011;6014;47.690;9.130;2023-08-06T00:03:30;5.07;;;2.53;;
11907;SDS011;6014;47.690;9.130;2023-08-06T00:05:59;6.05;;;2.33;;
11907;SDS011;6014;47.690;9.130;2023-08-06T00:08:27;4.05;;;2.40;;
11907;SDS011;6014;47.690;9.130;2023-08-06T00:10:55;5.78;;;2.38;;
11907;SDS011;6014;47.690;9.130;2023-08-06T00:13:26;6.60;;;3.22;;
11907;SDS011;6014;47.690;9.130;2023-08-06T00:16:03;5.22;;;2.30;;
11907;SDS011;6014;47.690;9.130;2023-08-06T00:18:38;4.22;;;2.45;;
11907;SDS011;6014;47.690;9.130;2023-08-06T00:21:08;7.18;;;2.85;;
11907;SDS011;6014;47.690;9.130;2023-08-06T00:23:38;5.32;;;2.78;;
11907;SDS011;6014;47.690;9.130;2023-08-06T00:26:07;4.95;;;2.50;;
11907;SDS011;6014;47.690;9.130;2023-08-06T00:28:38;4.30;;;2.38;;
11907;SDS011;6014;47.690;9.130;2023-08-06T00:31:13;4.57;;;2.67;;
11907;SDS011;6014;47.690;9.130;2023-08-06T00:33:48;4.35;;;2.55;;
11907;SDS011;6014;47.690;9.130;2023-08-06T00:36:22;4.40;;;2.53;;
11907;SDS011;6014;47.690;9.130;2023-08-06T00:38:51;5.03;;;2.75;;
11907;SDS011;6014;47.690;9.130;2023-08-06T00:41:19;5.20;;;2.63;;
11907;SDS011;6014;47.690;9.130;2023-08-06T00:43:49;5.28;;;2.63;;
11907;SDS011;6014;47.690;9.130;2023-08-06T00:46:21;5.63;;;2.53;;
11907;SDS011;6014;47.690;9.130;2023-08-06T00:51:31;13.43;;;3.65;;
11907;SDS011;6014;47.690;9.130;2023-08-06T00:54:08;5.18;;;2.42;;
11907;SDS011;6014;47.690;9.130;2023-08-06T00:56:36;5.53;;;2.55;;
11907;SDS011;6014;47.690;9.130;2023-08-06T00:59:06;5.53;;;2.72;;
11907;SDS011;6014;47.690;9.130;2023-08-06T01:01:34;5.78;;;2.60;;
11907;SDS011;6014;47.690;9.130;2023-08-06T01:04:03;5.07;;;2.95;;
11907;SDS011;6014;47.690;9.130;2023-08-06T01:06:34;4.30;;;2.50;;
11907;SDS011;6014;47.690;9.130;2023-08-06T01:09:07;5.10;;;2.70;;
11907;SDS011;6014;47.690;9.130;2023-08-06T01:11:42;6.70;;;2.90;;
11907;SDS011;6014;47.690;9.130;2023-08-06T01:14:15;4.53;;;2.15;;
11907;SDS011;6014;47.690;9.130;2023-08-06T01:16:46;4.55;;;2.40;;
11907;SDS011;6014;47.690;9.130;2023-08-06T01:19:15;4.65;;;2.30;;
11907;SDS011;6014;47.690;9.130;2023-08-06T01:21:45;3.63;;;2.33;;
11907;SDS011;6014;47.690;9.130;2023-08-06T01:24:13;5.28;;;2.50;;
11907;SDS011;6014;47.690;9.130;2023-08-06T01:26:43;4.00;;;2.20;;
11907;SDS011;6014;47.690;9.130;2023-08-06T01:29:13;5.30;;;2.65;;
11907;SDS011;6014;47.690;9.130;2023-08-06T01:31:43;4.18;;;2.10;;
11907;SDS011;6014;47.690;9.130;2023-08-06T01:34:13;4.43;;;2.10;;
11907;SDS011;6014;47.690;9.130;2023-08-06T01:36:47;3.88;;;2.15;;
11907;SDS011;6014;47.690;9.130;2023-08-06T01:39:15;3.55;;;2.10;;
11907;SDS011;6014;47.690;9.130;2023-08-06T01:41:47;5.47;;;2.15;;
11907;SDS011;6014;47.690;9.130;2023-08-06T01:44:16;5.32;;;2.30;;
11907;SDS011;6014;47.690;9.130;2023-08-06T01:46:44;4.40;;;2.28;;
11907;SDS011;6014;47.690;9.130;2023-08-06T01:49:13;4.95;;;2.63;;
11907;SDS011;6014;47.690;9.130;2023-08-06T01:51:41;4.38;;;2.50;;
11907;SDS011;6014;47.690;9.130;2023-08-06T01:54:11;5.03;;;2.58;;
11907;SDS011;6014;47.690;9.130;2023-08-06T01:56:40;4.40;;;2.40;;
11907;SDS011;6014;47.690;9.130;2023-08-06T01:59:08;4.43;;;2.30;;
11907;SDS011;6014;47.690;9.130;2023-08-06T02:01:37;4.85;;;2.65;;
11907;SDS011;6014;47.690;9.130;2023-08-06T02:04:05;5.35;;;3.13;;
11907;SDS011;6014;47.690;9.130;2023-08-06T02:06:34;4.68;;;2.30;;
11907;SDS011;6014;47.690;9.130;2023-08-06T02:09:04;4.47;;;2.50;;
11907;SDS011;6014;47.690;9.130;2023-08-06T02:11:39;4.72;;;2.30;;
11907;SDS011;6014;47.690;9.130;2023-08-06T02:14:07;4.72;;;2.40;;
11907;SDS011;6014;47.690;9.130;2023-08-06T02:16:36;4.65;;;2.72;;
11907;SDS011;6014;47.690;9.130;2023-08-06T02:19:04;3.88;;;2.13;;
11907;SDS011;6014;47.690;9.130;2023-08-06T02:21:32;5.30;;;2.55;;
11907;SDS011;6014;47.690;9.130;2023-08-06T02:24:01;4.65;;;2.40;;
11907;SDS011;6014;47.690;9.130;2023-08-06T02:26:31;5.57;;;2.72;;
11907;SDS011;6014;47.690;9.130;2023-08-06T02:29:01;5.38;;;2.58;;
11907;SDS011;6014;47.690;9.130;2023-08-06T02:31:29;4.88;;;2.50;;
11907;SDS011;6014;47.690;9.130;2023-08-06T02:33:58;4.32;;;2.40;;
11907;SDS011;6014;47.690;9.130;2023-08-06T02:36:26;4.53;;;2.53;;
11907;SDS011;6014;47.690;9.130;2023-08-06T02:38:55;6.22;;;3.25;;
11907;SDS011;6014;47.690;9.130;2023-08-06T02:41:24;4.85;;;2.50;;
11907;SDS011;6014;47.690;9.130;2023-08-06T02:43:52;4.70;;;2.60;;
11907;SDS011;6014;47.690;9.130;2023-08-06T02:46:22;5.30;;;2.70;;
11907;SDS011;6014;47.690;9.130;2023-08-06T02:48:52;7.07;;;2.45;;
11907;SDS011;6014;47.690;9.130;2023-08-06T02:51:21;6.28;;;2.40;;
11907;SDS011;6014;47.690;9.130;2023-08-06T02:53:49;4.22;;;2.40;;
11907;SDS011;6014;47.690;9.130;2023-08-06T02:56:17;3.87;;;2.00;;
11907;SDS011;6014;47.690;9.130;2023-08-06T02:58:46;3.72;;;2.10;;
11907;SDS011;6014;47.690;9.130;2023-08-06T03:01:14;4.47;;;1.90;;
11907;SDS011;6014;47.690;9.130;2023-08-06T03:03:52;2.60;;;1.80;;
11907;SDS011;6014;47.690;9.130;2023-08-06T03:06:21;4.28;;;2.10;;
11907;SDS011;6014;47.690;9.130;2023-08-06T03:08:50;3.17;;;1.80;;
11907;SDS011;6014;47.690;9.130;2023-08-06T03:11:18;4.90;;;1.88;;
11907;SDS011;6014;47.690;9.130;2023-08-06T03:13:47;3.72;;;1.85;;
11907;SDS011;6014;47.690;9.130;2023-08-06T03:16:15;3.95;;;1.88;;
11907;SDS011;6014;47.690;9.130;2023-08-06T03:18:43;3.40;;;1.80;;
11907;SDS011;6014;47.690;9.130;2023-08-06T03:21:13;4.00;;;2.08;;
11907;SDS011;6014;47.690;9.130;2023-08-06T03:23:41;2.88;;;1.60;;
11907;SDS011;6014;47.690;9.130;2023-08-06T03:26:10;4.30;;;2.00;;
11907;SDS011;6014;47.690;9.130;2023-08-06T03:28:38;3.55;;;1.75;;
11907;SDS011;6014;47.690;9.130;2023-08-06T03:31:09;3.83;;;2.00;;
11907;SDS011;6014;47.690;9.130;2023-08-06T03:33:38;4.47;;;1.85;;
11907;SDS011;6014;47.690;9.130;2023-08-06T03:36:19;3.08;;;1.80;;
11907;SDS011;6014;47.690;9.130;2023-08-06T03:38:48;4.22;;;1.90;;
11907;SDS011;6014;47.690;9.130;2023-08-06T03:41:16;4.18;;;1.90;;
11907;SDS011;6014;47.690;9.130;2023-08-06T03:43:44;3.08;;;1.70;;
11907;SDS011;6014;47.690;9.130;2023-08-06T03:46:13;3.38;;;1.90;;
11907;SDS011;6014;47.690;9.130;2023-08-06T03:48:41;5.30;;;1.70;;
11907;SDS011;6014;47.690;9.130;2023-08-06T03:51:10;5.18;;;1.95;;
11907;SDS011;6014;47.690;9.130;2023-08-06T03:53:40;4.00;;;2.20;;
11907;SDS011;6014;47.690;9.130;2023-08-06T03:56:08;5.55;;;2.30;;
11907;SDS011;6014;47.690;9.130;2023-08-06T03:58:37;2.85;;;1.83;;
11907;SDS011;6014;47.690;9.130;2023-08-06T04:01:05;3.03;;;1.73;;
11907;SDS011;6014;47.690;9.130;2023-08-06T04:03:34;3.45;;;1.80;;
11907;SDS011;6014;47.690;9.130;2023-08-06T04:06:02;2.83;;;1.63;;
11907;SDS011;6014;47.690;9.130;2023-08-06T04:08:30;2.67;;;1.50;;
11907;SDS011;6014;47.690;9.130;2023-08-06T04:11:00;2.80;;;1.58;;
11907;SDS011;6014;47.690;9.130;2023-08-06T04:16:08;3.05;;;1.40;;
11907;SDS011;6014;47.690;9.130;2023-08-06T04:18:36;2.75;;;1.48;;
11907;SDS011;6014;47.690;9.130;2023-08-06T04:21:05;3.47;;;1.50;;
11907;SDS011;6014;47.690;9.130;2023-08-06T04:23:34;2.33;;;1.13;;
11907;SDS011;6014;47.690;9.130;2023-08-06T04:26:04;3.30;;;1.40;;
11907;SDS011;6014;47.690;9.130;2023-08-06T04:28:40;2.20;;;1.23;;
11907;SDS011;6014;47.690;9.130;2023-08-06T04:31:08;2.25;;;1.30;;
11907;SDS011;6014;47.690;9.130;2023-08-06T04:33:38;2.92;;;1.50;;
11907;SDS011;6014;47.690;9.130;2023-08-06T04:36:10;3.10;;;1.65;;
11907;SDS011;6014;47.690;9.130;2023-08-06T04:38:38;3.47;;;1.45;;
11907;SDS011;6014;47.690;9.130;2023-08-06T04:41:12;3.40;;;1.52;;
11907;SDS011;6014;47.690;9.130;2023-08-06T04:43:41;1.55;;;0.95;;
11907;SDS011;6014;47.690;9.130;2023-08-06T04:46:11;3.97;;;1.15;;
11907;SDS011;6014;47.690;9.130;2023-08-06T04:48:39;5.72;;;1.40;;
11907;SDS011;6014;47.690;9.130;2023-08-06T04:51:07;4.45;;;1.35;;
11907;SDS011;6014;47.690;9.130;2023-08-06T04:53:36;2.35;;;1.27;;
11907;SDS011;6014;47.690;9.130;2023-08-06T04:56:04;4.25;;;1.08;;
11907;SDS011;6014;47.690;9.130;2023-08-06T04:58:33;3.13;;;1.40;;
11907;SDS011;6014;47.690;9.130;2023-08-06T05:01:05;2.13;;;1.10;;
11907;SDS011;6014;47.690;9.130;2023-08-06T05:03:33;4.22;;;0.98;;
11907;SDS011;6014;47.690;9.130;2023-08-06T05:06:03;2.97;;;0.95;;
11907;SDS011;6014;47.690;9.130;2023-08-06T05:08:31;1.10;;;0.90;;
11907;SDS011;6014;47.690;9.130;2023-08-06T05:10:59;2.88;;;1.00;;
11907;SDS011;6014;47.690;9.130;2023-08-06T05:13:27;1.50;;;0.98;;
11907;SDS011;6014;47.690;9.130;2023-08-06T05:15:56;1.60;;;1.02;;
11907;SDS011;6014;47.690;9.130;2023-08-06T05:18:25;2.65;;;1.17;;
11907;SDS011;6014;47.690;9.130;2023-08-06T05:20:53;2.78;;;1.13;;
11907;SDS011;6014;47.690;9.130;2023-08-06T05:23:22;3.33;;;1.25;;
11907;SDS011;6014;47.690;9.130;2023-08-06T05:25:50;1.38;;;0.75;;
11907;SDS011;6014;47.690;9.130;2023-08-06T05:28:18;4.85;;;0.90;;
11907;SDS011;6014;47.690;9.130;2023-08-06T05:30:47;4.80;;;1.08;;
11907;SDS011;6014;47.690;9.130;2023-08-06T05:33:16;0.60;;;0.60;;
11907;SDS011;6014;47.690;9.130;2023-08-06T05:36:01;0.60;;;0.60;;
11907;SDS011;6014;47.690;9.130;2023-08-06T05:38:29;2.78;;;0.90;;
11907;SDS011;6014;47.690;9.130;2023-08-06T05:40:58;1.88;;;0.70;;
11907;SDS011;6014;47.690;9.130;2023-08-06T05:43:26;2.13;;;0.70;;
11907;SDS011;6014;47.690;9.130;2023-08-06T05:45:55;0.82;;;0.70;;
11907;SDS011;6014;47.690;9.130;2023-08-06T05:48:25;0.90;;;0.70;;
11907;SDS011;6014;47.690;9.130;2023-08-06T05:50:57;0.57;;;0.53;;
11907;SDS011;6014;47.690;9.130;2023-08-06T05:53:26;2.22;;;0.80;;
11907;SDS011;6014;47.690;9.130;2023-08-06T05:55:54;1.02;;;0.70;;
11907;SDS011;6014;47.690;9.130;2023-08-06T05:58:31;0.82;;;0.55;;
11907;SDS011;6014;47.690;9.130;2023-08-06T06:00:59;0.98;;;0.73;;
11907;SDS011;6014;47.690;9.130;2023-08-06T06:03:29;0.98;;;0.82;;
11907;SDS011;6014;47.690;9.130;2023-08-06T06:05:58;2.28;;;0.90;;
11907;SDS011;6014;47.690;9.130;2023-08-06T06:08:26;1.17;;;0.65;;
11907;SDS011;6014;47.690;9.130;2023-08-06T06:10:55;1.00;;;0.70;;
11907;SDS011;6014;47.690;9.130;2023-08-06T06:13:23;1.13;;;0.50;;
11907;SDS011;6014;47.690;9.130;2023-08-06T06:15:53;1.00;;;0.80;;
11907;SDS011;6014;47.690;9.130;2023-08-06T06:18:22;1.50;;;0.80;;
11907;SDS011;6014;47.690;9.130;2023-08-06T06:20:52;1.35;;;0.70;;
11907;SDS011;6014;47.690;9.130;2023-08-06T06:23:20;4.83;;;1.50;;
11907;SDS011;6014;47.690;9.130;2023-08-06T06:25:49;2.83;;;0.93;;
11907;SDS011;6014;47.690;9.130;2023-08-06T06:28:18;2.58;;;0.93;;
11907;SDS011;6014;47.690;9.130;2023-08-06T06:30:47;2.67;;;1.08;;
11907;SDS011;6014;47.690;9.130;2023-08-06T06:33:16;3.03;;;0.93;;
11907;SDS011;6014;47.690;9.130;2023-08-06T06:35:44;1.98;;;0.75;;
11907;SDS011;6014;47.690;9.130;2023-08-06T06:38:14;1.48;;;0.80;;
11907;SDS011;6014;47.690;9.130;2023-08-06T06:40:43;3.28;;;1.20;;
11907;SDS011;6014;47.690;9.130;2023-08-06T06:43:11;5.22;;;0.98;;
11907;SDS011;6014;47.690;9.130;2023-08-06T06:45:39;1.58;;;0.90;;
11907;SDS011;6014;47.690;9.130;2023-08-06T06:48:08;1.65;;;0.82;;
11907;SDS011;6014;47.690;9.130;2023-08-06T06:50:36;3.72;;;0.90;;
11907;SDS011;6014;47.690;9.130;2023-08-06T06:53:05;4.30;;;1.00;;
11907;SDS011;6014;47.690;9.130;2023-08-06T06:55:35;2.83;;;1.23;;
11907;SDS011;6014;47.690;9.130;2023-08-06T06:58:03;3.50;;;1.20;;
11907;SDS011;6014;47.690;9.130;2023-08-06T07:00:31;0.52;;;0.50;;
11907;SDS011;6014;47.690;9.130;2023-08-06T07:03:15;0.77;;;0.60;;
11907;SDS011;6014;47.690;9.130;2023-08-06T07:05:46;2.05;;;1.10;;
11907;SDS011;6014;47.690;9.130;2023-08-06T07:08:15;1.17;;;0.90;;
11907;SDS011;6014;47.690;9.130;2023-08-06T07:10:44;2.47;;;0.82;;
11907;SDS011;6014;47.690;9.130;2023-08-06T07:13:12;2.00;;;0.80;;
11907;SDS011;6014;47.690;9.130;2023-08-06T07:15:41;1.92;;;0.60;;
11907;SDS011;6014;47.690;9.130;2023-08-06T07:18:09;0.90;;;0.63;;
11907;SDS011;6014;47.690;9.130;2023-08-06T07:20:39;0.73;;;0.70;;
11907;SDS011;6014;47.690;9.130;2023-08-06T07:23:07;0.95;;;0.65;;
11907;SDS011;6014;47.690;9.130;2023-08-06T07:25:36;1.95;;;0.80;;
11907;SDS011;6014;47.690;9.130;2023-08-06T07:28:06;1.33;;;0.82;;
11907;SDS011;6014;47.690;9.130;2023-08-06T07:30:35;1.70;;;0.63;;
11907;SDS011;6014;47.690;9.130;2023-08-06T07:33:07;1.40;;;1.00;;
11907;SDS011;6014;47.690;9.130;2023-08-06T07:35:36;0.82;;;0.70;;
11907;SDS011;6014;47.690;9.130;2023-08-06T07:38:05;1.15;;;0.80;;
11907;SDS011;6014;47.690;9.130;2023-08-06T07:40:47;3.08;;;0.93;;
11907;SDS011;6014;47.690;9.130;2023-08-06T07:43:18;2.10;;;0.60;;
11907;SDS011;6014;47.690;9.130;2023-08-06T07:45:46;1.42;;;0.73;;
11907;SDS011;6014;47.690;9.130;2023-08-06T07:48:15;2.03;;;0.90;;
11907;SDS011;6014;47.690;9.130;2023-08-06T07:50:43;1.30;;;0.70;;
11907;SDS011;6014;47.690;9.130;2023-08-06T07:53:16;0.60;;;0.60;;
11907;SDS011;6014;47.690;9.130;2023-08-06T07:55:47;2.17;;;0.70;;
11907;SDS011;6014;47.690;9.130;2023-08-06T07:58:16;0.68;;;0.63;;
11907;SDS011;6014;47.690;9.130;2023-08-06T08:00:46;0.50;;;0.50;;
11907;SDS011;6014;47.690;9.130;2023-08-06T08:03:16;1.85;;;0.47;;
11907;SDS011;6014;47.690;9.130;2023-08-06T08:05:44;0.60;;;0.50;;
11907;SDS011;6014;47.690;9.130;2023-08-06T08:10:45;1.70;;;0.73;;
11907;SDS011;6014;47.690;9.130;2023-08-06T08:13:14;0.50;;;0.50;;
11907;SDS011;6014;47.690;9.130;2023-08-06T08:15:44;2.53;;;0.40;;
11907;SDS011;6014;47.690;9.130;2023-08-06T08:18:12;0.70;;;0.70;;
11907;SDS011;6014;47.690;9.130;2023-08-06T08:20:40;1.20;;;0.50;;
11907;SDS011;6014;47.690;9.130;2023-08-06T08:23:09;0.95;;;0.50;;
11907;SDS011;6014;47.690;9.130;2023-08-06T08:25:39;2.80;;;0.80;;
11907;SDS011;6014;47.690;9.130;2023-08-06T08:28:07;0.88;;;0.73;;
11907;SDS011;6014;47.690;9.130;2023-08-06T08:30:36;0.52;;;0.52;;
11907;SDS011;6014;47.690;9.130;2023-08-06T08:33:11;0.82;;;0.52;;
11907;SDS011;6014;47.690;9.130;2023-08-06T08:35:40;1.90;;;0.70;;
11907;SDS011;6014;47.690;9.130;2023-08-06T08:38:08;2.67;;;0.70;;
11907;SDS011;6014;47.690;9.130;2023-08-06T08:40:44;0.60;;;0.60;;
11907;SDS011;6014;47.690;9.130;2023-08-06T08:43:14;0.68;;;0.50;;
11907;SDS011;6014;47.690;9.130;2023-08-06T08:45:43;0.70;;;0.70;;
11907;SDS011;6014;47.690;9.130;2023-08-06T08:48:23;1.45;;;0.60;;
11907;SDS011;6014;47.690;9.130;2023-08-06T08:50:52;0.85;;;0.50;;
11907;SDS011;6014;47.690;9.130;2023-08-06T08:53:20;2.92;;;0.90;;
11907;SDS011;6014;47.690;9.130;2023-08-06T08:55:49;1.00;;;0.77;;
11907;SDS011;6014;47.690;9.130;2023-08-06T08:58:19;1.08;;;0.90;;
11907;SDS011;6014;47.690;9.130;2023-08-06T09:00:47;1.05;;;0.80;;
11907;SDS011;6014;47.690;9.130;2023-08-06T09:03:16;0.52;;;0.52;;
11907;SDS011;6014;47.690;9.130;2023-08-06T09:05:49;0.73;;;0.60;;
11907;SDS011;6014;47.690;9.130;2023-08-06T09:08:24;3.92;;;0.40;;
11907;SDS011;6014;47.690;9.130;2023-08-06T09:13:36;0.43;;;0.43;;
11907;SDS011;6014;47.690;9.130;2023-08-06T09:16:09;1.25;;;0.50;;
11907;SDS011;6014;47.690;9.130;2023-08-06T09:18:38;0.70;;;0.70;;
11907;SDS011;6014;47.690;9.130;2023-08-06T09:21:08;0.30;;;0.30;;
11907;SDS011;6014;47.690;9.130;2023-08-06T09:23:50;0.77;;;0.60;;
11907;SDS011;6014;47.690;9.130;2023-08-06T09:26:22;0.50;;;0.50;;
11907;SDS011;6014;47.690;9.130;2023-08-06T09:28:52;0.60;;;0.60;;
11907;SDS011;6014;47.690;9.130;2023-08-06T09:31:20;1.30;;;0.60;;
11907;SDS011;6014;47.690;9.130;2023-08-06T09:33:48;0.63;;;0.63;;
11907;SDS011;6014;47.690;9.130;2023-08-06T09:36:18;0.55;;;0.55;;
11907;SDS011;6014;47.690;9.130;2023-08-06T09:38:53;0.55;;;0.50;;
11907;SDS011;6014;47.690;9.130;2023-08-06T09:41:28;0.40;;;0.40;;
11907;SDS011;6014;47.690;9.130;2023-08-06T09:43:58;0.32;;;0.32;;
11907;SDS011;6014;47.690;9.130;2023-08-06T09:46:26;1.48;;;0.60;;
11907;SDS011;6014;47.690;9.130;2023-08-06T09:48:59;0.45;;;0.45;;
11907;SDS011;6014;47.690;9.130;2023-08-06T09:51:31;0.52;;;0.43;;
11907;SDS011;6014;47.690;9.130;2023-08-06T09:54:00;1.23;;;0.68;;
11907;SDS011;6014;47.690;9.130;2023-08-06T09:56:46;1.05;;;0.60;;
11907;SDS011;6014;47.690;9.130;2023-08-06T09:59:15;1.48;;;0.55;;
11907;SDS011;6014;47.690;9.130;2023-08-06T10:01:46;0.50;;;0.50;;
11907;SDS011;6014;47.690;9.130;2023-08-06T10:04:15;0.50;;;0.50;;
11907;SDS011;6014;47.690;9.130;2023-08-06T10:09:43;0.50;;;0.50;;
11907;SDS011;6014;47.690;9.130;2023-08-06T10:12:11;0.90;;;0.80;;
11907;SDS011;6014;47.690;9.130;2023-08-06T10:14:40;0.60;;;0.60;;
11907;SDS011;6014;47.690;9.130;2023-08-06T10:17:16;2.03;;;0.70;;
11907;SDS011;6014;47.690;9.130;2023-08-06T10:19:46;0.57;;;0.57;;
11907;SDS011;6014;47.690;9.130;2023-08-06T10:22:26;0.60;;;0.50;;
11907;SDS011;6014;47.690;9.130;2023-08-06T10:25:02;0.73;;;0.60;;
11907;SDS011;6014;47.690;9.130;2023-08-06T10:27:32;0.50;;;0.50;;
11907;SDS011;6014;47.690;9.130;2023-08-06T10:32:56;0.50;;;0.50;;
11907;SDS011;6014;47.690;9.130;2023-08-06T10:35:29;0.40;;;0.40;;
11907;SDS011;6014;47.690;9.130;2023-08-06T10:38:05;0.40;;;0.40;;
11907;SDS011;6014;47.690;9.130;2023-08-06T10:40:36;0.40;;;0.40;;
11907;SDS011;6014;47.690;9.130;2023-08-06T10:43:07;1.65;;;0.70;;
11907;SDS011;6014;47.690;9.130;2023-08-06T10:45:53;0.60;;;0.60;;
11907;SDS011;6014;47.690;9.130;2023-08-06T10:48:33;0.40;;;0.40;;
11907;SDS011;6014;47.690;9.130;2023-08-06T10:51:02;0.65;;;0.60;;
11907;SDS011;6014;47.690;9.130;2023-08-06T10:53:33;0.50;;;0.50;;
11907;SDS011;6014;47.690;9.130;2023-08-06T10:56:11;0.40;;;0.40;;
11907;SDS011;6014;47.690;9.130;2023-08-06T10:58:40;0.43;;;0.43;;
11907;SDS011;6014;47.690;9.130;2023-08-06T11:01:11;0.50;;;0.50;;
11907;SDS011;6014;47.690;9.130;2023-08-06T11:03:41;0.40;;;0.40;;
11907;SDS011;6014;47.690;9.130;2023-08-06T11:06:22;0.45;;;0.45;;
11907;SDS011;6014;47.690;9.130;2023-08-06T11:08:59;0.90;;;0.47;;
11907;SDS011;6014;47.690;9.130;2023-08-06T11:11:33;0.65;;;0.40;;
11907;SDS011;6014;47.690;9.130;2023-08-06T11:14:07;0.38;;;0.38;;
11907;SDS011;6014;47.690;9.130;2023-08-06T11:16:43;0.30;;;0.30;;
11907;SDS011;6014;47.690;9.130;2023-08-06T11:19:11;0.50;;;0.50;;
11907;SDS011;6014;47.690;9.130;2023-08-06T11:21:42;0.40;;;0.40;;
11907;SDS011;6014;47.690;9.130;2023-08-06T11:24:12;0.60;;;0.60;;
11907;SDS011;6014;47.690;9.130;2023-08-06T11:26:40;0.40;;;0.40;;
11907;SDS011;6014;47.690;9.130;2023-08-06T11:29:12;0.40;;;0.40;;
11907;SDS011;6014;47.690;9.130;2023-08-06T11:31:42;0.63;;;0.50;;
11907;SDS011;6014;47.690;9.130;2023-08-06T11:34:15;2.80;;;0.60;;
11907;SDS011;6014;47.690;9.130;2023-08-06T11:36:47;0.50;;;0.50;;
11907;SDS011;6014;47.690;9.130;2023-08-06T11:39:30;3.53;;;0.68;;
11907;SDS011;6014;47.690;9.130;2023-08-06T11:42:06;1.98;;;0.60;;
11907;SDS011;6014;47.690;9.130;2023-08-06T11:44:50;4.70;;;0.60;;
11907;SDS011;6014;47.690;9.130;2023-08-06T11:47:20;1.15;;;0.40;;
11907;SDS011;6014;47.690;9.130;2023-08-06T11:49:50;0.20;;;0.20;;
11907;SDS011;6014;47.690;9.130;2023-08-06T11:52:23;1.23;;;0.55;;
11907;SDS011;6014;47.690;9.130;2023-08-06T11:55:04;0.50;;;0.50;;
11907;SDS011;6014;47.690;9.130;2023-08-06T11:57:37;0.35;;;0.35;;
11907;SDS011;6014;47.690;9.130;2023-08-06T12:00:07;0.40;;;0.40;;
11907;SDS011;6014;47.690;9.130;2023-08-06T12:02:39;0.30;;;0.30;;
11907;SDS011;6014;47.690;9.130;2023-08-06T12:05:18;0.38;;;0.38;;
11907;SDS011;6014;47.690;9.130;2023-08-06T12:07:52;0.28;;;0.28;;
11907;SDS011;6014;47.690;9.130;2023-08-06T12:10:24;1.10;;;0.40;;
11907;SDS011;6014;47.690;9.130;2023-08-06T12:12:57;0.65;;;0.65;;
11907;SDS011;6014;47.690;9.130;2023-08-06T12:15:28;0.40;;;0.40;;
11907;SDS011;6014;47.690;9.130;2023-08-06T12:18:07;0.50;;;0.50;;
11907;SDS011;6014;47.690;9.130;2023-08-06T12:20:38;0.57;;;0.50;;
11907;SDS011;6014;47.690;9.130;2023-08-06T12:23:06;0.40;;;0.40;;
11907;SDS011;6014;47.690;9.130;2023-08-06T12:25:43;1.23;;;0.57;;
11907;SDS011;6014;47.690;9.130;2023-08-06T12:28:18;0.75;;;0.50;;
11907;SDS011;6014;47.690;9.130;2023-08-06T12:30:52;1.20;;;0.50;;
11907;SDS011;6014;47.690;9.130;2023-08-06T12:33:21;0.40;;;0.40;;
11907;SDS011;6014;47.690;9.130;2023-08-06T12:35:49;2.92;;;0.63;;
11907;SDS011;6014;47.690;9.130;2023-08-06T12:38:26;0.30;;;0.30;;
11907;SDS011;6014;47.690;9.130;2023-08-06T12:40:58;0.52;;;0.52;;
11907;SDS011;6014;47.690;9.130;2023-08-06T12:43:26;0.47;;;0.47;;
11907;SDS011;6014;47.690;9.130;2023-08-06T12:46:00;0.50;;;0.50;;
11907;SDS011;6014;47.690;9.130;2023-08-06T12:48:28;0.25;;;0.25;;
11907;SDS011;6014;47.690;9.130;2023-08-06T12:50:57;0.40;;;0.40;;
11907;SDS011;6014;47.690;9.130;2023-08-06T12:53:31;0.60;;;0.60;;
11907;SDS011;6014;47.690;9.130;2023-08-06T12:56:01;0.40;;;0.40;;
11907;SDS011;6014;47.690;9.130;2023-08-06T12:58:29;0.65;;;0.40;;
11907;SDS011;6014;47.690;9.130;2023-08-06T13:00:57;0.77;;;0.70;;
11907;SDS011;6014;47.690;9.130;2023-08-06T13:03:25;0.30;;;0.30;;
11907;SDS011;6014;47.690;9.130;2023-08-06T13:06:01;0.85;;;0.70;;
11907;SDS011;6014;47.690;9.130;2023-08-06T13:08:29;0.50;;;0.50;;
11907;SDS011;6014;47.690;9.130;2023-08-06T13:10:58;0.45;;;0.40;;
11907;SDS011;6014;47.690;9.130;2023-08-06T13:13:41;0.55;;;0.55;;
11907;SDS011;6014;47.690;9.130;2023-08-06T13:16:12;0.30;;;0.30;;
11907;SDS011;6014;47.690;9.130;2023-08-06T13:18:47;1.25;;;0.60;;
11907;SDS011;6014;47.690;9.130;2023-08-06T13:21:16;0.50;;;0.40;;
11907;SDS011;6014;47.690;9.130;2023-08-06T13:23:47;0.75;;;0.75;;
11907;SDS011;6014;47.690;9.130;2023-08-06T13:26:24;0.43;;;0.43;;
11907;SDS011;6014;47.690;9.130;2023-08-06T13:29:01;0.95;;;0.70;;
11907;SDS011;6014;47.690;9.130;2023-08-06T13:31:29;2.13;;;0.90;;
11907;SDS011;6014;47.690;9.130;2023-08-06T13:33:57;0.88;;;0.60;;
11907;SDS011;6014;47.690;9.130;2023-08-06T13:36:27;3.05;;;0.80;;
11907;SDS011;6014;47.690;9.130;2023-08-06T13:39:00;1.92;;;0.70;;
11907;SDS011;6014;47.690;9.130;2023-08-06T13:41:33;1.88;;;1.05;;
11907;SDS011;6014;47.690;9.130;2023-08-06T13:44:01;0.50;;;0.50;;
11907;SDS011;6014;47.690;9.130;2023-08-06T13:46:32;1.75;;;0.68;;
11907;SDS011;6014;47.690;9.130;2023-08-06T13:49:01;1.55;;;0.80;;
11907;SDS011;6014;47.690;9.130;2023-08-06T13:51:32;1.90;;;0.77;;
11907;SDS011;6014;47.690;9.130;2023-08-06T13:54:04;1.58;;;0.63;;
11907;SDS011;6014;47.690;9.130;2023-08-06T13:56:35;0.93;;;0.50;;
11907;SDS011;6014;47.690;9.130;2023-08-06T13:59:06;0.82;;;0.60;;
11907;SDS011;6014;47.690;9.130;2023-08-06T14:01:35;1.00;;;0.73;;
11907;SDS011;6014;47.690;9.130;2023-08-06T14:04:20;3.78;;;0.70;;
11907;SDS011;6014;47.690;9.130;2023-08-06T14:06:48;0.98;;;0.77;;
11907;SDS011;6014;47.690;9.130;2023-08-06T14:09:16;0.65;;;0.60;;
11907;SDS011;6014;47.690;9.130;2023-08-06T14:11:46;0.98;;;0.70;;
11907;SDS011;6014;47.690;9.130;2023-08-06T14:14:14;1.38;;;0.60;;
11907;SDS011;6014;47.690;9.130;2023-08-06T14:16:44;0.70;;;0.70;;
11907;SDS011;6014;47.690;9.130;2023-08-06T14:19:12;1.08;;;0.80;;
11907;SDS011;6014;47.690;9.130;2023-08-06T14:21:42;1.70;;;0.75;;
11907;SDS011;6014;47.690;9.130;2023-08-06T14:24:10;1.10;;;0.80;;
11907;SDS011;6014;47.690;9.130;2023-08-06T14:26:39;2.22;;;0.88;;
11907;SDS011;6014;47.690;9.130;2023-08-06T14:29:08;2.40;;;0.70;;
11907;SDS011;6014;47.690;9.130;2023-08-06T14:31:37;1.15;;;0.70;;
11907;SDS011;6014;47.690;9.130;2023-08-06T14:34:06;1.13;;;0.65;;
11907;SDS011;6014;47.690;9.130;2023-08-06T14:36:36;0.73;;;0.73;;
11907;SDS011;6014;47.690;9.130;2023-08-06T14:39:05;2.90;;;1.10;;
11907;SDS011;6014;47.690;9.130;2023-08-06T14:41:35;1.65;;;0.75;;
11907;SDS011;6014;47.690;9.130;2023-08-06T14:44:03;1.17;;;0.90;;
11907;SDS011;6014;47.690;9.130;2023-08-06T14:46:41;1.50;;;1.10;;
11907;SDS011;6014;47.690;9.130;2023-08-06T14:49:10;1.52;;;0.93;;
11907;SDS011;6014;47.690;9.130;2023-08-06T14:51:40;0.80;;;0.80;;
11907;SDS011;6014;47.690;9.130;2023-08-06T14:54:15;3.75;;;0.80;;
11907;SDS011;6014;47.690;9.130;2023-08-06T14:56:45;1.85;;;0.90;;
11907;SDS011;6014;47.690;9.130;2023-08-06T14:59:21;1.80;;;0.80;;
11907;SDS011;6014;47.690;9.130;2023-08-06T15:01:50;0.52;;;0.52;;
11907;SDS011;6014;47.690;9.130;2023-08-06T15:04:20;2.08;;;0.85;;
11907;SDS011;6014;47.690;9.130;2023-08-06T15:06:51;1.20;;;0.80;;
11907;SDS011;6014;47.690;9.130;2023-08-06T15:09:19;2.28;;;0.80;;
11907;SDS011;6014;47.690;9.130;2023-08-06T15:11:49;0.70;;;0.60;;
11907;SDS011;6014;47.690;9.130;2023-08-06T15:14:17;1.20;;;0.77;;
11907;SDS011;6014;47.690;9.130;2023-08-06T15:16:46;1.40;;;0.93;;
11907;SDS011;6014;47.690;9.130;2023-08-06T15:21:47;1.63;;;0.80;;
11907;SDS011;6014;47.690;9.130;2023-08-06T15:24:15;1.02;;;0.90;;
11907;SDS011;6014;47.690;9.130;2023-08-06T15:26:44;4.47;;;0.80;;
11907;SDS011;6014;47.690;9.130;2023-08-06T15:29:12;0.98;;;0.80;;
11907;SDS011;6014;47.690;9.130;2023-08-06T15:31:42;1.08;;;0.88;;
11907;SDS011;6014;47.690;9.130;2023-08-06T15:36:53;1.35;;;0.80;;
11907;SDS011;6014;47.690;9.130;2023-08-06T15:39:25;1.48;;;0.63;;
11907;SDS011;6014;47.690;9.130;2023-08-06T15:41:53;1.40;;;0.90;;